Time;durP1;ratioP1;P1;durP2;ratioP2;P2;SDS_P1;SDS_P2;PMS_P1;PMS_P2;Temp;Humidity;BMP_temperature;BMP_pressure;BME280_temperature;BME280_humidity;BME280_pressure;Samples;Min_cycle;Max_cycle;Signal;HPM_P1;HPM_P2
2022/01/12 00:02:13;;;;;;;73.63;29.65;;;4.20;99.90;;;;;;5069737;28;20055;-70
2022/01/12 00:04:40;;;;;;;69.72;30.20;;;4.10;99.90;;;;;;5053903;28;20056;-70
2022/01/12 00:07:05;;;;;;;75.75;31.20;;;4.10;99.90;;;;;;5070812;28;20049;-70
2022/01/12 00:09:31;;;;;;;83.20;32.03;;;4.10;99.90;;;;;;5052574;28;20061;-70
2022/01/12 00:11:58;;;;;;;85.85;30.92;;;4.10;99.90;;;;;;5052794;28;20570;-71
2022/01/12 00:14:27;;;;;;;82.68;32.10;;;4.20;99.90;;;;;;5058472;28;20124;-70
2022/01/12 00:16:58;;;;;;;70.70;30.23;;;4.80;99.90;;;;;;5051069;28;20497;-70
2022/01/12 00:19:24;;;;;;;88.88;30.80;;;4.10;99.90;;;;;;5070642;28;20052;-72
2022/01/12 00:21:50;;;;;;;81.57;31.17;;;4.20;99.90;;;;;;5052536;28;20057;-70
2022/01/12 00:24:16;;;;;;;89.43;32.30;;;4.20;99.90;;;;;;5053847;28;20106;-70
2022/01/12 00:33:07;;;;;;;89.40;32.85;;;4.20;99.90;;;;;;5055646;28;20052;-72
2022/01/12 00:34:56;;;;;;;93.82;32.45;;;4.00;99.90;;;;;;5071358;28;20083;-71
2022/01/12 00:37:22;;;;;;;100.75;33.65;;;4.00;99.90;;;;;;5071383;28;20124;-71
2022/01/12 00:39:47;;;;;;;102.68;34.83;;;4.10;99.90;;;;;;5072390;28;20143;-70
2022/01/12 00:42:13;;;;;;;125.88;33.78;;;4.10;99.90;;;;;;5070257;28;20127;-71
2022/01/12 00:44:44;;;;;;;113.30;35.10;;;4.10;99.90;;;;;;5070749;28;20049;-71
2022/01/12 00:47:11;;;;;;;92.78;31.92;;;4.10;99.90;;;;;;5069982;28;20132;-71
2022/01/12 00:49:37;;;;;;;94.70;33.28;;;4.10;99.90;;;;;;5070602;28;20148;-71
2022/01/12 00:52:03;;;;;;;105.53;34.20;;;4.20;99.90;;;;;;5053584;28;20121;-71
2022/01/12 00:54:29;;;;;;;126.75;34.97;;;4.20;99.90;;;;;;5066524;28;20445;-70
2022/01/12 00:56:54;;;;;;;105.20;33.42;;;4.20;99.90;;;;;;5070226;28;20083;-71
2022/01/12 00:59:20;;;;;;;108.95;35.85;;;4.20;99.90;;;;;;5070785;28;20148;-70
2022/01/12 01:01:45;;;;;;;103.60;33.20;;;4.30;99.90;;;;;;5070213;28;20051;-70
2022/01/12 01:04:11;;;;;;;117.20;32.75;;;4.30;99.90;;;;;;5070530;28;20408;-70
2022/01/12 01:06:37;;;;;;;123.18;33.60;;;4.30;99.90;;;;;;5070101;28;20098;-70
2022/01/12 01:09:05;;;;;;;97.97;33.03;;;4.20;99.90;;;;;;5070033;28;20083;-71
2022/01/12 01:11:32;;;;;;;107.65;33.35;;;4.30;99.90;;;;;;5068903;28;20129;-71
2022/01/12 01:13:59;;;;;;;124.53;33.63;;;4.30;99.90;;;;;;5054558;28;20048;-70
2022/01/12 01:27:19;;;;;;;161.40;36.05;;;4.30;99.90;;;;;;5069615;28;20413;-70
2022/01/12 01:29:44;;;;;;;134.65;35.97;;;4.30;99.90;;;;;;5057532;28;20055;-70
2022/01/12 01:32:11;;;;;;;122.45;34.05;;;4.30;99.90;;;;;;5050827;28;20507;-70
2022/01/12 01:34:43;;;;;;;145.48;35.38;;;4.30;99.90;;;;;;5052169;28;20052;-70
2022/01/12 01:37:09;;;;;;;148.38;34.92;;;5.00;99.90;;;;;;5069720;28;20090;-70
2022/01/12 01:39:35;;;;;;;151.48;35.55;;;4.30;99.90;;;;;;5069655;28;20477;-70
2022/01/12 01:42:07;;;;;;;131.93;33.85;;;4.40;99.90;;;;;;5051753;28;20098;-70
2022/01/12 01:53:18;;;;;;;187.65;36.67;;;4.40;99.90;;;;;;5069893;28;20060;-70
2022/01/12 01:55:34;;;;;;;169.05;38.15;;;4.40;99.90;;;;;;5062018;28;20393;-70
2022/01/12 01:58:00;;;;;;;268.35;38.95;;;4.40;99.90;;;;;;5069240;28;20056;-71
2022/01/12 02:00:27;;;;;;;144.43;34.78;;;4.40;99.90;;;;;;5069383;28;20064;-70
2022/01/12 02:02:56;;;;;;;125.63;32.53;;;4.40;99.90;;;;;;5068348;28;20473;-71
2022/01/12 02:05:22;;;;;;;111.60;32.47;;;4.40;99.90;;;;;;5070595;28;20121;-71
2022/01/12 02:07:48;;;;;;;94.07;30.27;;;4.40;99.90;;;;;;5071674;28;20060;-71
2022/01/12 02:10:14;;;;;;;115.82;29.10;;;4.50;99.90;;;;;;5053308;28;20578;-71
2022/01/12 02:12:40;;;;;;;96.13;29.20;;;4.50;99.90;;;;;;5053846;28;20477;-71
2022/01/12 02:15:22;;;;;;;105.05;28.63;;;4.80;99.90;;;;;;5068831;28;20048;-71
2022/01/12 02:40:30;;;;;;;86.38;27.30;;;4.60;99.90;;;;;;5068538;28;20052;-70
2022/01/12 02:51:13;;;;;;;75.40;26.35;;;4.70;99.90;;;;;;5050516;28;20037;-72
2022/01/12 02:56:20;;;;;;;68.38;24.35;;;5.70;99.90;;;;;;5068622;28;20053;-71
2022/01/12 02:58:48;;;;;;;65.03;24.30;;;4.70;99.90;;;;;;5068589;28;20056;-71
2022/01/12 03:04:00;;;;;;;63.90;24.40;;;4.80;99.90;;;;;;5068005;28;20061;-71
2022/01/12 03:06:30;;;;;;;56.60;22.60;;;4.70;99.90;;;;;;5034604;28;20049;-70
2022/01/12 03:08:56;;;;;;;64.78;24.33;;;4.70;99.90;;;;;;5068489;28;20222;-70
2022/01/12 03:11:24;;;;;;;68.90;24.05;;;5.50;99.90;;;;;;5066707;28;20048;-70
2022/01/12 03:13:51;;;;;;;66.25;23.52;;;4.70;99.90;;;;;;5033568;28;20048;-70
2022/01/12 03:16:20;;;;;;;72.82;23.33;;;4.60;99.90;;;;;;5049620;28;20048;-71
2022/01/12 03:19:00;;;;;;;68.07;23.35;;;4.60;99.90;;;;;;5068341;28;20052;-70
2022/01/12 03:21:29;;;;;;;69.13;24.42;;;4.50;99.90;;;;;;5067900;28;20526;-70
2022/01/12 03:23:55;;;;;;;70.32;23.42;;;5.90;99.90;;;;;;5050046;28;20049;-70
2022/01/12 03:26:23;;;;;;;71.75;24.70;;;4.40;99.90;;;;;;5048748;28;20504;-70
2022/01/12 03:28:53;;;;;;;76.13;24.90;;;4.30;99.90;;;;;;5067522;28;20045;-70
2022/01/12 03:31:22;;;;;;;80.45;25.13;;;4.30;99.90;;;;;;5066979;28;20091;-70
2022/01/12 03:33:57;;;;;;;69.57;24.55;;;4.20;99.90;;;;;;5069724;28;20491;-70
2022/01/12 03:39:13;;;;;;;74.93;24.58;;;4.10;99.90;;;;;;5067159;28;20064;-70
2022/01/12 03:41:42;;;;;;;79.38;25.08;;;4.00;99.90;;;;;;5050710;28;20053;-71
2022/01/12 03:44:10;;;;;;;107.93;25.58;;;4.00;99.90;;;;;;5048161;28;20562;-70
2022/01/12 03:46:38;;;;;;;126.80;27.60;;;4.00;99.90;;;;;;5049499;28;20131;-70
2022/01/12 03:49:04;;;;;;;146.20;27.30;;;4.00;99.90;;;;;;5049177;28;20403;-70
2022/01/12 03:51:30;;;;;;;126.18;25.15;;;4.00;99.90;;;;;;5068166;28;20485;-70
2022/01/12 03:53:56;;;;;;;143.60;25.52;;;4.00;99.90;;;;;;5067718;28;20765;-70
2022/01/12 03:56:22;;;;;;;209.05;25.95;;;4.00;99.90;;;;;;5048840;28;20070;-70
2022/01/12 03:58:47;;;;;;;180.05;27.40;;;4.00;99.90;;;;;;5069552;28;20110;-70
2022/01/12 04:01:13;;;;;;;113.22;24.83;;;4.00;99.90;;;;;;5067104;28;20054;-71
2022/01/12 04:03:45;;;;;;;149.35;26.38;;;3.90;99.90;;;;;;5050166;28;20451;-70
2022/01/12 04:08:55;;;;;;;289.73;29.02;;;3.90;99.90;;;;;;5044960;28;20399;-71
2022/01/12 04:11:21;;;;;;;349.75;30.15;;;3.80;99.90;;;;;;5055194;28;20136;-71
2022/01/12 04:13:49;;;;;;;197.90;25.42;;;3.80;99.90;;;;;;5066257;28;20044;-70
2022/01/12 04:16:15;;;;;;;280.50;26.38;;;3.70;99.90;;;;;;5067127;28;20056;-70
2022/01/12 04:18:42;;;;;;;254.63;25.85;;;3.70;99.90;;;;;;5068058;28;20083;-71
2022/01/12 04:21:10;;;;;;;209.98;25.02;;;3.70;99.90;;;;;;5066767;28;20496;-71
2022/01/12 04:23:37;;;;;;;230.43;25.73;;;3.70;99.90;;;;;;5067684;28;20152;-70
2022/01/12 04:26:10;;;;;;;256.05;23.75;;;3.60;99.90;;;;;;5067191;28;20045;-71
2022/01/12 04:28:39;;;;;;;294.45;24.10;;;3.60;99.90;;;;;;5048776;28;20071;-71
2022/01/12 04:31:05;;;;;;;188.57;22.55;;;3.60;99.90;;;;;;5046327;28;20102;-73
2022/01/12 04:33:31;;;;;;;271.23;21.63;;;3.50;99.90;;;;;;5045346;28;20040;-70
2022/01/12 04:35:57;;;;;;;181.50;20.45;;;3.50;99.90;;;;;;5055893;28;20053;-70
2022/01/12 04:38:27;;;;;;;262.77;22.08;;;3.80;99.90;;;;;;5048429;28;20515;-71
2022/01/12 04:40:53;;;;;;;258.20;22.73;;;3.10;99.90;;;;;;5032001;28;20090;-71
2022/01/12 04:43:20;;;;;;;396.23;29.60;;;3.40;99.90;;;;;;5067286;28;20110;-71
2022/01/12 04:48:34;;;;;;;216.63;21.38;;;3.40;99.90;;;;;;5071062;28;20535;-71
2022/01/12 04:50:59;;;;;;;271.10;24.17;;;3.30;99.90;;;;;;5070457;28;20052;-70
2022/01/12 04:53:25;;;;;;;280.00;23.25;;;3.30;99.90;;;;;;5051211;28;20049;-70
2022/01/12 04:55:52;;;;;;;204.25;19.90;;;3.30;99.90;;;;;;5034076;28;20080;-70
2022/01/12 04:58:19;;;;;;;222.32;23.88;;;3.20;99.90;;;;;;5053154;28;20060;-70
2022/01/12 05:00:46;;;;;;;111.13;19.73;;;3.30;99.90;;;;;;5053756;28;20172;-70
2022/01/12 05:13:57;;;;;;;90.20;16.85;;;3.10;99.90;;;;;;5044911;28;20392;-70
2022/01/12 05:16:23;;;;;;;96.32;16.90;;;3.20;99.90;;;;;;5049625;28;20091;-70
2022/01/12 05:18:51;;;;;;;95.05;15.40;;;3.00;99.90;;;;;;5050931;28;20053;-70
2022/01/12 05:21:19;;;;;;;80.25;14.77;;;3.00;99.90;;;;;;5066679;28;20105;-69
2022/01/12 05:23:45;;;;;;;93.88;16.52;;;3.90;99.90;;;;;;5054703;28;20048;-70
2022/01/12 05:26:11;;;;;;;86.53;16.65;;;3.00;99.90;;;;;;5071928;28;20064;-70
2022/01/12 05:28:38;;;;;;;90.93;15.48;;;2.90;99.90;;;;;;5070340;28;20059;-71
2022/01/12 05:31:05;;;;;;;112.28;16.75;;;2.90;99.90;;;;;;5051658;28;20049;-70
2022/01/12 05:33:32;;;;;;;155.23;17.10;;;2.90;99.90;;;;;;5051354;28;20493;-70
2022/01/12 05:35:59;;;;;;;145.75;16.52;;;2.80;99.90;;;;;;5070737;28;20097;-71
2022/01/12 05:38:25;;;;;;;175.52;17.63;;;2.80;99.90;;;;;;5069744;28;20052;-70
2022/01/12 05:40:55;;;;;;;222.05;20.25;;;2.80;99.90;;;;;;5070041;28;20392;-70
2022/01/12 05:43:25;;;;;;;172.35;18.33;;;2.70;99.90;;;;;;5069601;28;20472;-70
2022/01/12 05:45:53;;;;;;;212.00;19.27;;;2.70;99.90;;;;;;5034958;28;20051;-71
2022/01/12 05:50:48;;;;;;;215.23;20.45;;;2.50;99.90;;;;;;5070149;28;20589;-70
2022/01/12 05:53:15;;;;;;;133.82;16.40;;;2.50;99.90;;;;;;5069171;28;20509;-70
2022/01/12 05:55:40;;;;;;;106.25;15.55;;;2.50;99.90;;;;;;5050859;28;20515;-70
2022/01/12 05:58:06;;;;;;;188.82;17.75;;;2.50;99.90;;;;;;5072083;28;20041;-71
2022/01/12 06:00:32;;;;;;;232.45;19.98;;;2.40;99.90;;;;;;5070767;28;20059;-70
2022/01/12 06:02:57;;;;;;;111.50;15.15;;;2.40;99.90;;;;;;5062128;28;20056;-71
2022/01/12 06:05:23;;;;;;;136.85;17.20;;;2.40;99.90;;;;;;5049974;28;20417;-70
2022/01/12 06:07:50;;;;;;;136.27;16.77;;;2.40;99.90;;;;;;5049038;28;20045;-70
2022/01/12 06:10:17;;;;;;;116.78;16.20;;;2.40;99.90;;;;;;5031265;28;20060;-70
2022/01/12 06:12:44;;;;;;;168.50;17.30;;;2.40;99.90;;;;;;5049015;28;20049;-70
2022/01/12 06:15:11;;;;;;;187.75;19.02;;;2.40;99.90;;;;;;5056167;28;20153;-71
2022/01/12 06:17:37;;;;;;;320.42;22.20;;;2.50;99.90;;;;;;5068065;28;20186;-70
2022/01/12 06:20:05;;;;;;;233.05;19.80;;;2.50;99.90;;;;;;5068785;28;20045;-70
2022/01/12 06:22:31;;;;;;;289.58;20.40;;;2.40;99.90;;;;;;5069263;28;20048;-70
2022/01/12 06:24:59;;;;;;;253.50;21.25;;;2.40;99.90;;;;;;5069163;28;20126;-70
2022/01/12 06:27:28;;;;;;;249.75;22.10;;;2.40;99.90;;;;;;5050487;28;20052;-70
2022/01/12 06:32:20;;;;;;;246.70;19.85;;;2.40;99.90;;;;;;5068390;28;20053;-71
2022/01/12 06:34:46;;;;;;;279.77;22.25;;;2.40;99.90;;;;;;5050364;28;20109;-71
2022/01/12 06:37:12;;;;;;;165.85;16.90;;;2.40;99.90;;;;;;5069210;28;20118;-70
2022/01/12 06:39:38;;;;;;;238.88;18.27;;;2.40;99.90;;;;;;5049566;28;20128;-70
2022/01/12 06:42:04;;;;;;;170.82;15.90;;;2.50;99.90;;;;;;5067022;28;20384;-71
2022/01/12 06:44:30;;;;;;;181.45;17.33;;;2.50;99.90;;;;;;5050881;28;20187;-71
2022/01/12 06:46:58;;;;;;;131.43;16.42;;;2.50;99.90;;;;;;5067315;28;20532;-71
2022/01/12 06:49:24;;;;;;;129.68;13.77;;;2.40;99.90;;;;;;5049630;28;20161;-71
2022/01/12 06:51:50;;;;;;;120.97;14.07;;;2.50;99.90;;;;;;5064468;28;20528;-72
2022/01/12 06:54:16;;;;;;;221.77;17.80;;;2.40;99.90;;;;;;5030796;28;20083;-71
2022/01/12 06:56:42;;;;;;;197.38;15.35;;;2.40;99.90;;;;;;5039023;28;20102;-72
2022/01/12 06:59:08;;;;;;;136.65;14.35;;;3.50;99.90;;;;;;5053278;28;20056;-72
2022/01/12 07:01:34;;;;;;;290.05;20.20;;;2.30;99.90;;;;;;5069411;28;20475;-72
2022/01/12 07:04:00;;;;;;;199.60;18.02;;;2.30;99.90;;;;;;5066995;28;20048;-72
2022/01/12 07:06:25;;;;;;;200.98;18.02;;;2.30;99.90;;;;;;5067927;28;20679;-72
2022/01/12 07:08:51;;;;;;;122.40;14.68;;;2.30;99.90;;;;;;5068790;28;20053;-72
2022/01/12 07:11:17;;;;;;;130.73;15.93;;;2.20;99.90;;;;;;5048489;28;20057;-71
2022/01/12 07:13:42;;;;;;;130.93;15.23;;;2.20;99.90;;;;;;5069119;28;20056;-71
2022/01/12 07:16:08;;;;;;;315.50;23.15;;;2.30;99.90;;;;;;5067034;28;20095;-72
2022/01/12 07:18:34;;;;;;;136.70;14.68;;;2.20;99.90;;;;;;5049877;28;20114;-70
2022/01/12 07:21:00;;;;;;;220.52;17.40;;;2.20;99.90;;;;;;5066474;28;20113;-71
2022/01/12 07:23:26;;;;;;;161.85;14.30;;;2.10;99.90;;;;;;5066704;28;20041;-70
2022/01/12 07:25:52;;;;;;;87.20;14.50;;;2.10;99.90;;;;;;5052003;28;20128;-70
2022/01/12 07:28:19;;;;;;;247.82;20.10;;;2.10;99.90;;;;;;5043502;28;20175;-67
2022/01/12 07:30:45;;;;;;;172.45;17.83;;;2.10;99.90;;;;;;5030667;28;20055;-68
2022/01/12 07:33:11;;;;;;;130.73;14.70;;;2.10;99.90;;;;;;5030675;28;20055;-68
2022/01/12 07:35:37;;;;;;;102.05;16.30;;;2.10;99.90;;;;;;5047813;28;20413;-68
2022/01/12 07:38:03;;;;;;;67.55;13.45;;;2.00;99.90;;;;;;5029629;28;20067;-68
2022/01/12 07:40:29;;;;;;;132.70;15.02;;;2.00;99.90;;;;;;5029457;28;20052;-67
2022/01/12 07:42:55;;;;;;;72.63;13.02;;;2.00;99.90;;;;;;5037897;28;20127;-67
2022/01/12 07:45:21;;;;;;;60.42;11.57;;;1.90;99.90;;;;;;5053900;28;20045;-68
2022/01/12 07:47:47;;;;;;;84.00;13.27;;;2.00;99.90;;;;;;5047309;28;20065;-68
2022/01/12 07:50:14;;;;;;;93.97;13.52;;;2.00;99.90;;;;;;5047985;28;20405;-69
2022/01/12 07:52:39;;;;;;;112.20;13.50;;;2.20;99.90;;;;;;5054612;28;20500;-67
2022/01/12 07:55:06;;;;;;;92.82;12.00;;;1.80;99.90;;;;;;5067222;28;20063;-68
2022/01/12 07:57:32;;;;;;;76.95;11.43;;;1.80;99.90;;;;;;5066558;28;20041;-70
2022/01/12 07:59:58;;;;;;;83.80;11.50;;;1.80;99.90;;;;;;5066152;28;20041;-67
2022/01/12 08:02:24;;;;;;;39.05;9.13;;;1.80;99.90;;;;;;5064504;28;20136;-67
2022/01/12 08:04:50;;;;;;;85.82;12.93;;;1.80;99.90;;;;;;5047532;28;20056;-67
2022/01/12 08:07:15;;;;;;;88.38;12.43;;;1.80;99.90;;;;;;5029173;28;20056;-68
2022/01/12 08:09:42;;;;;;;45.42;10.98;;;1.80;99.90;;;;;;5061569;28;20106;-67
2022/01/12 08:12:09;;;;;;;66.93;13.23;;;1.80;99.90;;;;;;5068381;28;20484;-68
2022/01/12 08:14:35;;;;;;;83.85;10.88;;;1.80;99.90;;;;;;5058976;28;20092;-68
2022/01/12 08:17:00;;;;;;;117.00;13.65;;;1.90;99.90;;;;;;5047589;28;20493;-68
2022/01/12 08:19:28;;;;;;;91.93;11.98;;;1.90;99.90;;;;;;5033670;28;20052;-68
2022/01/12 08:21:54;;;;;;;72.18;12.95;;;1.90;99.90;;;;;;5062499;28;20072;-68
2022/01/12 08:24:19;;;;;;;69.03;10.90;;;1.90;99.90;;;;;;5065008;28;20096;-69
2022/01/12 08:26:45;;;;;;;93.38;11.43;;;1.90;99.90;;;;;;5050340;28;20080;-68
2022/01/12 08:29:13;;;;;;;107.60;12.90;;;2.00;99.90;;;;;;5050932;28;20103;-67
2022/01/12 08:31:39;;;;;;;74.78;10.77;;;2.00;99.90;;;;;;5050692;28;20641;-68
2022/01/12 08:34:04;;;;;;;92.60;11.15;;;2.00;99.90;;;;;;5051887;28;20405;-69
2022/01/12 08:36:30;;;;;;;67.85;10.15;;;3.00;99.90;;;;;;5046298;28;20060;-67
2022/01/12 08:38:57;;;;;;;71.75;10.20;;;2.10;99.90;;;;;;5073840;28;20319;-69
2022/01/12 08:41:24;;;;;;;68.80;10.68;;;2.10;99.90;;;;;;5072322;28;20393;-69
2022/01/12 08:43:50;;;;;;;78.50;11.23;;;2.10;99.90;;;;;;5071796;28;20044;-69
2022/01/12 08:46:15;;;;;;;46.28;9.48;;;2.20;99.90;;;;;;5071228;28;20045;-70
2022/01/12 08:48:41;;;;;;;59.78;10.10;;;2.20;99.90;;;;;;5070978;28;20053;-67
2022/01/12 08:51:07;;;;;;;71.30;10.60;;;2.20;99.90;;;;;;5068024;28;20055;-69
2022/01/12 08:53:34;;;;;;;77.20;10.77;;;2.30;99.90;;;;;;5052387;28;20060;-67
2022/01/12 08:56:00;;;;;;;54.58;9.85;;;2.30;99.90;;;;;;5082338;28;20471;-67
2022/01/12 08:58:26;;;;;;;45.58;9.70;;;2.40;99.90;;;;;;5069888;28;20504;-67
2022/01/12 09:00:51;;;;;;;56.88;9.85;;;2.50;99.90;;;;;;5041484;28;20040;-69
2022/01/12 09:03:17;;;;;;;46.45;9.75;;;2.50;99.90;;;;;;5085203;28;20044;-67
2022/01/12 09:05:42;;;;;;;55.90;9.35;;;3.60;99.90;;;;;;5088993;28;20461;-67
2022/01/12 09:08:08;;;;;;;56.17;9.13;;;2.50;99.90;;;;;;5069650;28;20151;-67
2022/01/12 09:10:34;;;;;;;91.32;9.60;;;2.60;99.90;;;;;;5069090;28;20048;-68
2022/01/12 09:13:00;;;;;;;99.78;9.48;;;2.60;99.90;;;;;;5068692;28;20044;-68
2022/01/12 09:15:26;;;;;;;75.97;8.50;;;2.60;99.90;;;;;;5015685;28;20068;-67
2022/01/12 09:17:56;;;;;;;112.70;8.48;;;2.70;99.90;;;;;;5049484;28;20047;-67
2022/01/12 09:20:23;;;;;;;90.25;7.75;;;2.70;99.90;;;;;;5037402;28;20123;-67
2022/01/12 09:22:49;;;;;;;108.15;9.10;;;2.70;99.90;;;;;;5052432;28;20554;-66
2022/01/12 09:25:15;;;;;;;142.38;9.50;;;2.80;99.90;;;;;;5054226;28;20500;-66
2022/01/12 09:27:41;;;;;;;84.45;7.53;;;2.80;99.90;;;;;;5070048;28;20060;-66
2022/01/12 09:30:10;;;;;;;131.60;8.85;;;2.80;99.90;;;;;;5069385;28;20063;-66
2022/01/12 09:32:36;;;;;;;104.55;7.88;;;2.90;99.90;;;;;;5051420;28;20056;-67
2022/01/12 09:35:03;;;;;;;77.75;7.50;;;3.00;99.90;;;;;;5070013;28;20036;-67
2022/01/12 09:37:28;;;;;;;125.70;7.82;;;3.00;99.90;;;;;;5069060;28;20117;-67
2022/01/12 09:39:55;;;;;;;119.00;8.50;;;3.10;99.90;;;;;;5068636;28;20397;-68
2022/01/12 09:42:20;;;;;;;110.43;8.38;;;3.00;99.90;;;;;;5051573;28;20135;-67
2022/01/12 09:44:47;;;;;;;102.13;8.55;;;3.20;99.90;;;;;;5069461;28;20553;-68
2022/01/12 09:47:14;;;;;;;107.80;9.27;;;3.10;99.90;;;;;;5068396;28;20104;-67
2022/01/12 09:49:44;;;;;;;84.55;7.88;;;3.10;99.90;;;;;;5069891;28;20143;-67
2022/01/12 09:52:11;;;;;;;78.88;7.03;;;3.20;99.90;;;;;;5033929;28;20412;-67
2022/01/12 09:54:37;;;;;;;48.03;7.45;;;3.30;99.90;;;;;;5069211;28;20052;-68
2022/01/12 09:57:03;;;;;;;59.22;8.07;;;3.40;99.90;;;;;;5069281;28;20040;-67
2022/01/12 09:59:30;;;;;;;71.93;8.65;;;3.50;99.90;;;;;;5069169;28;20052;-67
2022/01/12 10:01:56;;;;;;;43.40;7.88;;;3.50;99.90;;;;;;5068316;28;20080;-67
2022/01/12 10:04:24;;;;;;;44.53;7.53;;;3.60;99.90;;;;;;5067555;28;20564;-67
2022/01/12 10:06:53;;;;;;;49.38;6.82;;;3.70;99.90;;;;;;5068379;28;20064;-67
2022/01/12 10:09:34;;;;;;;51.15;7.07;;;3.70;99.90;;;;;;5071152;28;20060;-67
2022/01/12 10:12:04;;;;;;;42.92;6.90;;;3.80;99.90;;;;;;5072736;28;20036;-67
2022/01/12 10:14:43;;;;;;;42.45;6.60;;;3.90;99.90;;;;;;5073371;28;20464;-68
2022/01/12 10:17:10;;;;;;;41.70;6.63;;;4.00;99.90;;;;;;5052285;28;20407;-67
2022/01/12 10:19:37;;;;;;;72.20;7.22;;;4.20;99.90;;;;;;5069138;28;20101;-67
2022/01/12 10:22:05;;;;;;;58.38;6.68;;;4.30;99.90;;;;;;5069128;28;20055;-68
2022/01/12 10:24:35;;;;;;;90.30;7.38;;;4.40;99.90;;;;;;5061403;28;20045;-67
2022/01/12 10:27:00;;;;;;;60.10;6.53;;;4.50;99.90;;;;;;5027143;28;20080;-68
2022/01/12 10:29:28;;;;;;;61.33;6.57;;;4.50;99.90;;;;;;5069000;28;20091;-68
2022/01/12 10:32:00;;;;;;;61.92;6.63;;;4.50;99.90;;;;;;5068104;28;20056;-68
2022/01/12 10:34:46;;;;;;;69.28;7.05;;;4.70;99.90;;;;;;5068005;28;20082;-68
2022/01/12 10:37:14;;;;;;;58.70;5.93;;;4.70;99.90;;;;;;5068962;28;20056;-68
2022/01/12 10:39:41;;;;;;;53.42;6.78;;;3.80;99.90;;;;;;5050370;28;20053;-68
2022/01/12 10:42:16;;;;;;;60.72;6.45;;;4.90;99.90;;;;;;5067042;28;20053;-68
2022/01/12 10:44:53;;;;;;;71.38;6.88;;;5.00;99.90;;;;;;5051251;28;20489;-68
2022/01/12 10:47:24;;;;;;;44.13;6.72;;;5.10;99.90;;;;;;5067164;28;20045;-68
2022/01/12 10:49:55;;;;;;;53.13;6.20;;;5.20;99.90;;;;;;5069065;28;20377;-68
2022/01/12 10:52:23;;;;;;;100.20;7.97;;;5.30;99.90;;;;;;5029807;28;20056;-67
2022/01/12 10:54:51;;;;;;;62.38;6.88;;;5.40;99.90;;;;;;5047970;28;20213;-67
2022/01/12 10:57:32;;;;;;;35.33;6.65;;;6.20;99.90;;;;;;5030031;28;20442;-67
2022/01/12 11:00:09;;;;;;;34.95;6.30;;;5.50;99.90;;;;;;5029933;28;20064;-67
2022/01/12 11:02:38;;;;;;;17.88;6.05;;;5.60;99.90;;;;;;5047308;28;20132;-67
2022/01/12 11:05:05;;;;;;;63.03;6.95;;;5.70;99.90;;;;;;5030909;28;20400;-67
2022/01/12 11:07:31;;;;;;;40.17;7.05;;;5.80;99.90;;;;;;5049695;28;20465;-67
2022/01/12 11:09:59;;;;;;;30.02;5.93;;;5.90;99.90;;;;;;5031427;28;20073;-67
2022/01/12 11:12:27;;;;;;;19.25;6.18;;;6.10;99.90;;;;;;5030078;28;20404;-67
2022/01/12 11:14:52;;;;;;;27.70;6.53;;;6.20;99.90;;;;;;5048193;28;20404;-67
2022/01/12 11:17:20;;;;;;;20.10;5.95;;;6.30;99.90;;;;;;5046921;28;20052;-67
2022/01/12 11:20:24;;;;;;;22.90;6.30;;;6.30;99.90;;;;;;5030513;28;20052;-67
2022/01/12 11:23:06;;;;;;;33.75;5.72;;;6.20;99.90;;;;;;5049049;28;20061;-69
2022/01/12 11:25:37;;;;;;;21.30;5.93;;;6.20;99.90;;;;;;5068979;28;20075;-69
2022/01/12 11:28:25;;;;;;;17.63;6.18;;;6.20;99.90;;;;;;5067790;28;20041;-66
2022/01/12 11:30:50;;;;;;;34.42;6.20;;;6.10;99.90;;;;;;5048379;28;20060;-66
2022/01/12 11:33:29;;;;;;;18.63;5.85;;;6.10;99.90;;;;;;5048883;28;20075;-67
2022/01/12 11:35:59;;;;;;;14.95;6.53;;;6.00;99.90;;;;;;5064853;28;20470;-69
2022/01/12 11:38:27;;;;;;;19.20;5.95;;;6.10;99.90;;;;;;5067229;28;20064;-68
2022/01/12 11:41:13;;;;;;;20.23;6.72;;;6.20;99.90;;;;;;5046037;28;20119;-69
2022/01/12 11:43:43;;;;;;;23.00;6.65;;;6.20;99.90;;;;;;5048726;28;20060;-68
2022/01/12 11:46:12;;;;;;;16.75;6.45;;;6.30;99.90;;;;;;5067269;28;20049;-68
2022/01/12 11:48:56;;;;;;;16.60;6.72;;;6.30;99.90;;;;;;5053216;28;20137;-68
2022/01/12 11:51:36;;;;;;;20.95;7.28;;;6.20;99.90;;;;;;5047293;28;20057;-67
2022/01/12 11:54:09;;;;;;;24.50;7.22;;;6.10;99.90;;;;;;5065068;28;20113;-67
2022/01/12 11:56:35;;;;;;;35.58;8.43;;;6.10;99.90;;;;;;5069632;28;20052;-68
2022/01/12 11:59:10;;;;;;;23.33;8.82;;;6.00;99.90;;;;;;5068966;28;20053;-67
2022/01/12 12:01:43;;;;;;;32.15;8.73;;;6.00;99.90;;;;;;5069387;28;20116;-68
2022/01/12 12:04:19;;;;;;;25.85;8.63;;;6.00;99.90;;;;;;5053813;28;20064;-69
2022/01/12 12:06:45;;;;;;;;;;;5.90;99.90;;;;;;5047984;28;20492;-69
2022/01/12 12:09:13;;;;;;;29.73;9.73;;;5.90;99.90;;;;;;5069022;28;20006;-68
2022/01/12 12:11:39;;;;;;;27.42;9.18;;;5.90;99.90;;;;;;5065677;28;20044;-69
2022/01/12 12:14:07;;;;;;;23.52;9.63;;;6.00;99.90;;;;;;5069936;28;20067;-68
2022/01/12 12:16:35;;;;;;;22.00;10.40;;;6.00;99.90;;;;;;5069394;28;20041;-69
2022/01/12 12:19:02;;;;;;;32.30;9.80;;;6.00;99.90;;;;;;5052329;28;20053;-67
2022/01/12 12:21:29;;;;;;;30.60;9.90;;;6.00;99.90;;;;;;5067548;28;20117;-69
2022/01/12 12:24:05;;;;;;;35.03;9.68;;;6.10;99.90;;;;;;5091594;28;20051;-69
2022/01/12 12:26:31;;;;;;;29.63;9.32;;;6.10;99.90;;;;;;5072198;28;20443;-69
2022/01/12 12:28:57;;;;;;;43.67;10.60;;;6.20;99.90;;;;;;5073523;28;20063;-69
2022/01/12 12:31:25;;;;;;;28.67;10.02;;;6.20;99.90;;;;;;5073337;28;20063;-69
2022/01/12 12:34:05;;;;;;;36.78;10.75;;;6.90;99.90;;;;;;5073475;28;20079;-68
2022/01/12 12:36:31;;;;;;;47.88;12.20;;;6.10;99.90;;;;;;5073182;28;20063;-68
2022/01/12 12:39:09;;;;;;;32.15;10.52;;;6.10;99.90;;;;;;5073053;28;20466;-68
2022/01/12 12:41:37;;;;;;;31.27;10.63;;;6.20;99.90;;;;;;5071780;28;20052;-68
2022/01/12 12:44:03;;;;;;;29.15;11.50;;;6.20;99.90;;;;;;5090997;28;20091;-68
2022/01/12 12:46:28;;;;;;;40.58;11.10;;;6.20;99.90;;;;;;5091724;28;20467;-67
2022/01/12 12:48:54;;;;;;;38.53;11.43;;;6.40;99.90;;;;;;5072528;28;20062;-68
2022/01/12 12:51:19;;;;;;;40.03;10.50;;;6.30;99.90;;;;;;5055999;28;20541;-68
2022/01/12 12:53:47;;;;;;;30.15;11.57;;;6.30;99.90;;;;;;5051683;28;20053;-67
2022/01/12 12:56:17;;;;;;;31.10;12.05;;;6.30;99.90;;;;;;5049230;28;20075;-67
2022/01/12 12:58:51;;;;;;;30.88;12.25;;;6.30;99.90;;;;;;5050810;28;20051;-68
2022/01/12 13:01:18;;;;;;;28.48;11.02;;;6.30;99.90;;;;;;5049195;28;20397;-68
2022/01/12 13:03:57;;;;;;;31.58;12.00;;;6.40;99.90;;;;;;5063359;28;20066;-68
2022/01/12 13:06:28;;;;;;;29.23;12.50;;;6.40;99.90;;;;;;5051933;28;20493;-68
2022/01/12 13:08:56;;;;;;;29.48;11.90;;;6.50;99.90;;;;;;5052505;28;20110;-67
2022/01/12 13:11:31;;;;;;;24.27;11.68;;;7.40;99.90;;;;;;5034458;28;20125;-68
2022/01/12 13:14:10;;;;;;;22.70;10.63;;;6.60;99.90;;;;;;5070577;28;20147;-67
2022/01/12 13:16:48;;;;;;;35.42;12.02;;;6.70;99.90;;;;;;5050126;28;20123;-67
2022/01/12 13:19:22;;;;;;;28.30;11.00;;;6.60;99.90;;;;;;5052924;28;20060;-67
2022/01/12 13:21:49;;;;;;;28.88;10.32;;;6.60;99.90;;;;;;5071604;28;20124;-67
2022/01/12 13:24:15;;;;;;;25.58;11.27;;;6.60;99.90;;;;;;5047833;28;20118;-70
2022/01/12 13:26:40;;;;;;;24.77;10.48;;;6.70;99.90;;;;;;5050206;28;20453;-69
2022/01/12 13:29:10;;;;;;;26.67;10.05;;;6.70;99.90;;;;;;5015343;28;20556;-68
2022/01/12 13:31:36;;;;;;;26.30;10.50;;;6.70;99.90;;;;;;5051816;28;20095;-68
2022/01/12 13:34:03;;;;;;;25.38;11.38;;;6.60;99.90;;;;;;5050526;28;20045;-66
2022/01/12 13:36:31;;;;;;;23.98;11.05;;;6.60;99.90;;;;;;5049119;28;20111;-67
2022/01/12 13:39:06;;;;;;;29.52;11.05;;;6.60;99.90;;;;;;5049390;28;20048;-67
2022/01/12 13:41:35;;;;;;;21.63;9.80;;;6.60;99.90;;;;;;5048947;28;20323;-69
2022/01/12 13:44:16;;;;;;;20.50;10.07;;;6.70;99.90;;;;;;5032072;28;20053;-67
2022/01/12 13:46:44;;;;;;;25.00;9.88;;;6.70;99.90;;;;;;5049409;28;20049;-67
2022/01/12 13:51:55;;;;;;;24.80;8.98;;;6.60;99.90;;;;;;5049194;28;20087;-69
2022/01/12 13:54:21;;;;;;;26.30;9.60;;;6.60;99.90;;;;;;5031655;28;20065;-70
2022/01/12 13:56:52;;;;;;;19.92;9.35;;;6.50;99.90;;;;;;5031884;28;20059;-68
2022/01/12 13:59:19;;;;;;;23.35;9.57;;;6.40;99.90;;;;;;5050044;28;20049;-66
2022/01/12 14:01:45;;;;;;;20.25;9.68;;;6.40;99.90;;;;;;5050930;28;20127;-69
2022/01/12 14:06:40;;;;;;;24.30;9.93;;;6.40;99.90;;;;;;5049267;28;20148;-69
2022/01/12 14:09:29;;;;;;;24.67;9.55;;;6.30;99.90;;;;;;5048917;28;20052;-67
2022/01/12 14:11:57;;;;;;;22.73;9.40;;;6.20;99.90;;;;;;5048230;28;20507;-68